METAR-Geschichte Noord Nederlandse Zweefvliegclub (NL-0036)

18. Mai 2022

Uhrzeit Code Wetter Temp. Sichtweite Wolken Wind METAR/SPECI
10:20
V
23 °C 10 km+ - 170°   170° 9 kt METAR ETND 180820Z 17009KT 9999 FEW036 SCT320 23/14 Q1021 BLU+BLU+
09:20
V
21 °C 10 km+ - 150°   150° 5 kt METAR ETND 180720Z 15005KT 9999 FEW024 SCT320 21/15 Q1021 BLU+BLU+
08:20
V
19 °C 10 km+ - 130°   130° 7 kt METAR ETND 180620Z 13007KT 9999 FEW070 SCT320 19/13 Q1021 BLU+BLU+
07:20
V
17 °C 10 km+ - 120°   120° 4 kt METAR ETND 180520Z 12004KT 9999 FEW075 SCT320 17/13 Q1021 BLU+BLU+
06:20
V
14 °C 10 km+ - 100°   100° 5 kt METAR ETND 180420Z 10005KT 9999 FEW075 SCT320 14/12 Q1020 BLU+BLU+

17. Mai 2022

Uhrzeit Code Wetter Temp. Sichtweite Wolken Wind METAR/SPECI
15:00
V
24 °C 10 km+ 30.000 ft 280°   280° 9 kt METAR ETND 171300Z 28009KT 9999 SCT045 BKN300 24/11 Q1020 BLU+FCST CANCEL
14:20
V
23 °C 10 km+ 30.000 ft 270°   270° 8 kt METAR ETND 171220Z 27008KT 9999 SCT045 BKN300 23/11 Q1020 BLU+BLU+
13:20
V
22 °C 10 km+ 30.000 ft 270°   270° 9 kt METAR ETND 171120Z 27009KT 9999 FEW030 SCT052 BKN300 22/11 Q1021 BLU+BLU+
12:20
V
21 °C 10 km+ 28.000 ft 270°   270° 9 kt METAR ETND 171020Z 27009KT 9999 FEW030 SCT060 BKN280 21/10 Q1021 BLU+BLU+
11:20
V
20 °C 10 km+ 28.000 ft 290°   290° 7 kt METAR ETND 170920Z 29007KT 9999 FEW027 BKN280 20/12 Q1021 BLU+BLU+
10:20
V
19 °C 10 km+ 28.000 ft 270°   270° 6 kt METAR ETND 170820Z 27006KT 9999 FEW024 BKN280 19/13 Q1020 BLU+BLU+
09:20
V
18 °C 10 km+ 28.000 ft 270°   270° 5 kt METAR ETND 170720Z 27005KT 9999 FEW020 BKN280 18/13 Q1020 BLU+BLU+
08:20
V
17 °C 10 km+ 30.000 ft 250°   250° 5 kt METAR ETND 170620Z 25005KT 9999 FEW070 BKN300 17/13 Q1020 BLU+BLU+
07:20
V
15 °C 10 km+ - Var   Var 2 kt METAR ETND 170520Z VRB02KT 9999 FEW070 SCT270 15/13 Q1020 BLU+BLU+
06:27
V
13 °C 8 km - 180°   180° 1 kt METAR ETND 170427Z 18001KT 8000 VCFG MIFG FEW060 SCT270 13/12 Q1019 BLU+BLU+
06:20
L
12 °C 50 m - 180°   180° 1 kt METAR ETND 170420Z 18001KT 0050 FG FEW060 SCT270 12/12 Q1019 RED RED BECMG BLU+

16. Mai 2022

Uhrzeit Code Wetter Temp. Sichtweite Wolken Wind METAR/SPECI
14:20
V
24 °C 10 km+ 11.000 ft 170°   170° 4 kt METAR ETND 161220Z 17004KT 9999 FEW100 BKN110 24/11 Q1015 BLU
14:00
V
23 °C 10 km+ 14.000 ft 170°   170° 6 kt METAR ETND 161200Z 17006KT 9999 SCT110 BKN140 23/11 Q1015 BLU FCST CANCEL
13:20
V
23 °C 10 km+ 16.000 ft 180°   180° 6 kt METAR ETND 161120Z 18006KT 9999 SCT130 BKN160 BKN250 23/11 Q1015 BLU BLU
12:20
V
24 °C 10 km+ 30.000 ft 100°   100° 10 kt METAR ETND 161020Z 10010KT 9999 FEW150 SCT170 BKN300 24/09 Q1015 BLU+BLU+
Ältere Daten

Laden Sie unsere App herunter

Einfacher Zugriff auf das gesamte Flugwetter auf Ihrem Mobiltelefon und Tablet.
Mit vielen Funktionen, die auf der Website nicht verfügbar sind, wie Offline-Unterstützung und eine persönliche Flughafenliste.